createdAt,value
2019-03-28T00:00:07.251Z,90.551758
2019-03-28T00:00:19.087Z,90.551758
2019-03-28T00:00:30.936Z,90.551758
2019-03-28T00:00:42.705Z,90.655518
2019-03-28T00:00:54.518Z,90.753174
2019-03-28T00:01:06.294Z,90.753174
2019-03-28T00:01:18.102Z,90.753174
2019-03-28T00:01:29.855Z,90.753174
2019-03-28T00:01:41.618Z,90.753174
2019-03-28T00:01:53.411Z,90.753174
2019-03-28T00:02:05.178Z,90.856934
2019-03-28T00:02:16.987Z,90.856934
2019-03-28T00:02:28.756Z,90.856934
2019-03-28T00:02:40.575Z,90.856934
2019-03-28T00:02:52.360Z,90.856934
2019-03-28T00:03:04.170Z,90.856934
2019-03-28T00:03:15.924Z,90.960693
2019-03-28T00:03:27.719Z,90.960693
2019-03-28T00:03:39.564Z,90.960693
2019-03-28T00:03:52.105Z,90.960693
2019-03-28T00:04:03.101Z,90.960693
2019-03-28T00:04:14.879Z,90.960693
2019-03-28T00:04:26.670Z,90.960693
2019-03-28T00:04:38.442Z,90.960693
2019-03-28T00:04:50.250Z,91.064453
2019-03-28T00:05:02.031Z,91.064453
2019-03-28T00:05:13.860Z,91.064453
2019-03-28T00:05:25.650Z,91.064453
2019-03-28T00:05:37.453Z,91.064453
2019-03-28T00:05:49.221Z,91.064453
2019-03-28T00:06:00.988Z,91.064453
2019-03-28T00:06:12.784Z,91.064453
2019-03-28T00:06:24.551Z,91.064453
2019-03-28T00:06:36.376Z,91.064453
2019-03-28T00:06:48.223Z,91.064453
2019-03-28T00:06:59.880Z,91.064453
2019-03-28T00:07:12.983Z,91.064453
2019-03-28T00:07:25.472Z,91.064453
2019-03-28T00:07:37.266Z,91.064453
2019-03-28T00:07:49.026Z,91.064453
2019-03-28T00:08:00.804Z,91.064453
2019-03-28T00:08:13.598Z,91.064453
2019-03-28T00:08:25.382Z,91.064453
2019-03-28T00:08:37.168Z,91.064453
2019-03-28T00:08:48.943Z,91.064453
2019-03-28T00:09:00.773Z,91.064453
2019-03-28T00:09:12.568Z,90.960693
2019-03-28T00:09:24.324Z,90.960693
2019-03-28T00:09:36.121Z,90.960693
2019-03-28T00:09:47.931Z,90.960693
2019-03-28T00:09:59.729Z,90.960693
2019-03-28T00:10:11.494Z,90.960693
2019-03-28T00:10:23.254Z,90.960693
2019-03-28T00:10:35.291Z,90.960693
2019-03-28T00:10:46.871Z,90.960693
2019-03-28T00:10:58.631Z,90.960693
2019-03-28T00:11:10.496Z,90.960693
2019-03-28T00:11:22.265Z,90.856934
2019-03-28T00:11:34.053Z,90.856934
2019-03-28T00:11:45.841Z,90.856934
2019-03-28T00:11:58.669Z,90.856934
2019-03-28T00:12:10.457Z,90.856934
2019-03-28T00:12:22.227Z,90.856934
2019-03-28T00:12:33.994Z,90.856934
2019-03-28T00:12:45.789Z,90.856934
2019-03-28T00:12:57.574Z,90.856934
2019-03-28T00:13:09.375Z,90.856934
2019-03-28T00:13:21.154Z,90.856934
2019-03-28T00:13:32.934Z,90.856934
2019-03-28T00:13:44.711Z,90.960693
2019-03-28T00:13:56.532Z,90.856934
2019-03-28T00:14:08.328Z,90.856934
2019-03-28T00:14:20.101Z,90.960693
2019-03-28T00:14:31.859Z,90.960693
2019-03-28T00:14:43.641Z,90.960693
2019-03-28T00:14:55.427Z,90.960693
2019-03-28T00:15:07.179Z,90.960693
2019-03-28T00:15:18.994Z,90.960693
2019-03-28T00:15:30.794Z,90.960693
2019-03-28T00:15:42.566Z,90.960693
2019-03-28T00:15:54.402Z,90.960693
2019-03-28T00:16:06.152Z,90.960693
2019-03-28T00:16:17.908Z,90.960693
2019-03-28T00:16:29.706Z,90.856934
2019-03-28T00:16:41.626Z,90.856934
2019-03-28T00:16:53.413Z,90.856934
2019-03-28T00:17:05.225Z,90.856934
2019-03-28T00:17:17.030Z,90.814209
2019-03-28T00:17:28.775Z,90.856934
2019-03-28T00:17:40.551Z,90.814209
2019-03-28T00:17:52.330Z,90.814209
2019-03-28T00:18:04.122Z,90.814209
2019-03-28T00:18:15.920Z,90.716553
2019-03-28T00:18:27.762Z,90.716553
2019-03-28T00:18:39.511Z,90.716553
2019-03-28T00:18:51.320Z,90.716553
2019-03-28T00:19:03.068Z,90.716553
2019-03-28T00:19:14.873Z,90.612793
2019-03-28T00:19:26.648Z,90.612793
2019-03-28T00:19:38.422Z,90.612793
2019-03-28T00:19:50.238Z,90.612793
2019-03-28T00:20:02.000Z,90.612793
2019-03-28T00:20:16.288Z,90.612793
2019-03-28T00:20:25.547Z,90.612793
2019-03-28T00:20:37.341Z,90.612793
2019-03-28T00:20:49.146Z,90.612793
2019-03-28T00:21:01.127Z,90.612793
2019-03-28T00:21:12.725Z,90.612793
2019-03-28T00:21:24.507Z,90.612793
2019-03-28T00:21:36.279Z,90.612793
2019-03-28T00:21:48.129Z,90.612793
2019-03-28T00:22:00.903Z,90.612793
2019-03-28T00:22:12.677Z,90.612793
2019-03-28T00:22:24.472Z,90.612793
2019-03-28T00:22:36.305Z,90.612793
2019-03-28T00:22:48.116Z,90.612793
2019-03-28T00:22:59.881Z,90.612793
2019-03-28T00:23:11.670Z,90.612793
2019-03-28T00:23:23.497Z,90.612793
2019-03-28T00:23:35.259Z,90.612793
2019-03-28T00:23:47.046Z,90.612793
2019-03-28T00:23:58.827Z,90.612793
2019-03-28T00:24:11.587Z,90.612793
2019-03-28T00:24:23.373Z,90.612793
2019-03-28T00:24:35.204Z,90.655518
2019-03-28T00:24:47.255Z,90.612793
2019-03-28T00:24:58.791Z,90.655518
2019-03-28T00:25:10.571Z,90.612793
2019-03-28T00:25:22.343Z,90.655518
2019-03-28T00:25:35.102Z,90.655518
2019-03-28T00:25:46.912Z,90.753174
2019-03-28T00:25:59.716Z,90.753174
2019-03-28T00:26:11.483Z,90.753174
2019-03-28T00:26:29.787Z,90.753174
2019-03-28T00:26:35.991Z,90.753174
2019-03-28T00:26:47.837Z,90.856934
2019-03-28T00:26:59.627Z,90.856934
2019-03-28T00:27:20.153Z,90.856934
2019-03-28T00:27:31.906Z,90.856934
2019-03-28T00:27:43.688Z,90.856934
2019-03-28T00:27:55.474Z,90.856934
2019-03-28T00:28:07.264Z,90.856934
2019-03-28T00:28:19.070Z,90.960693
2019-03-28T00:28:30.879Z,90.960693
2019-03-28T00:28:42.641Z,90.960693
2019-03-28T00:28:54.416Z,90.960693
2019-03-28T00:29:06.198Z,91.064453
2019-03-28T00:29:17.993Z,91.064453
2019-03-28T00:29:29.767Z,91.064453
2019-03-28T00:29:41.539Z,91.064453
2019-03-28T00:29:53.391Z,91.168213
2019-03-28T00:30:05.172Z,91.168213
2019-03-28T00:30:16.961Z,91.168213
2019-03-28T00:30:28.742Z,91.168213
2019-03-28T00:30:40.546Z,91.271973
2019-03-28T00:30:52.337Z,91.271973
2019-03-28T00:31:04.121Z,91.271973
2019-03-28T00:31:15.918Z,91.271973
2019-03-28T00:31:27.719Z,91.271973
2019-03-28T00:31:39.520Z,91.271973
2019-03-28T00:31:51.344Z,91.271973
2019-03-28T00:32:03.123Z,91.271973
2019-03-28T00:32:14.955Z,91.271973
2019-03-28T00:32:26.769Z,91.271973
2019-03-28T00:32:38.551Z,91.271973
2019-03-28T00:32:50.401Z,91.375732
2019-03-28T00:33:02.184Z,91.375732
2019-03-28T00:33:13.966Z,91.375732
2019-03-28T00:33:25.752Z,91.375732
2019-03-28T00:33:37.543Z,91.375732
2019-03-28T00:33:49.350Z,91.375732
2019-03-28T00:34:01.136Z,91.375732
2019-03-28T00:34:12.953Z,91.375732
2019-03-28T00:34:24.735Z,91.375732
2019-03-28T00:34:36.507Z,91.375732
2019-03-28T00:34:48.278Z,91.473389
2019-03-28T00:35:00.196Z,91.473389
2019-03-28T00:35:11.840Z,91.473389
2019-03-28T00:35:23.613Z,91.473389
2019-03-28T00:35:35.370Z,91.473389
2019-03-28T00:35:47.129Z,91.473389
2019-03-28T00:35:58.875Z,91.473389
2019-03-28T00:36:10.645Z,91.473389
2019-03-28T00:36:22.454Z,91.473389
2019-03-28T00:36:34.263Z,91.473389
2019-03-28T00:36:46.010Z,91.473389
2019-03-28T00:36:57.785Z,91.473389
2019-03-28T00:37:10.537Z,91.473389
2019-03-28T00:37:22.331Z,91.473389
2019-03-28T00:37:34.186Z,91.473389
2019-03-28T00:37:45.925Z,91.473389
2019-03-28T00:37:57.687Z,91.473389
2019-03-28T00:38:09.457Z,91.473389
2019-03-28T00:38:21.301Z,91.473389
2019-03-28T00:38:33.108Z,91.473389
2019-03-28T00:38:44.889Z,91.473389
2019-03-28T00:38:56.652Z,91.473389
2019-03-28T00:39:08.449Z,91.473389
2019-03-28T00:39:20.265Z,91.473389
2019-03-28T00:39:32.019Z,91.473389
2019-03-28T00:39:43.779Z,91.473389
2019-03-28T00:39:55.566Z,91.473389
2019-03-28T00:40:07.378Z,91.473389
2019-03-28T00:40:19.159Z,91.473389
2019-03-28T00:40:30.937Z,91.473389
2019-03-28T00:40:42.683Z,91.473389
2019-03-28T00:40:55.117Z,91.473389
2019-03-28T00:41:06.276Z,91.473389
2019-03-28T00:41:18.017Z,91.473389
2019-03-28T00:41:29.833Z,91.473389
2019-03-28T00:41:41.600Z,91.473389
2019-03-28T00:41:53.389Z,91.577148
2019-03-28T00:42:05.195Z,91.577148
2019-03-28T00:42:17.018Z,91.577148
2019-03-28T00:42:28.844Z,91.577148
2019-03-28T00:42:40.700Z,91.577148
2019-03-28T00:42:52.523Z,91.577148
2019-03-28T00:43:04.273Z,91.577148
2019-03-28T00:43:16.036Z,91.577148
2019-03-28T00:43:27.875Z,91.577148
2019-03-28T00:43:39.644Z,91.577148
2019-03-28T00:43:51.476Z,91.577148
2019-03-28T00:44:04.009Z,91.577148
2019-03-28T00:44:16.111Z,91.577148
2019-03-28T00:44:27.719Z,91.680908
2019-03-28T00:44:39.476Z,91.680908
2019-03-28T00:44:51.281Z,91.680908
2019-03-28T00:45:03.092Z,91.680908
2019-03-28T00:45:14.906Z,91.680908
2019-03-28T00:45:26.748Z,91.680908
2019-03-28T00:45:38.666Z,91.680908
2019-03-28T00:45:50.446Z,91.680908
2019-03-28T00:46:02.264Z,91.577148
2019-03-28T00:46:14.068Z,91.577148
2019-03-28T00:46:25.859Z,91.577148
2019-03-28T00:46:37.619Z,91.577148
2019-03-28T00:46:49.431Z,91.577148
2019-03-28T00:47:01.236Z,91.577148
2019-03-28T00:47:13.151Z,91.577148
2019-03-28T00:47:24.939Z,91.577148
2019-03-28T00:47:36.693Z,91.577148
2019-03-28T00:47:48.471Z,91.577148
2019-03-28T00:48:00.279Z,91.577148
2019-03-28T00:48:12.087Z,91.473389
2019-03-28T00:48:23.867Z,91.473389
2019-03-28T00:48:35.648Z,91.473389
2019-03-28T00:48:47.425Z,91.473389
2019-03-28T00:48:59.227Z,91.473389
2019-03-28T00:49:11.005Z,91.473389
2019-03-28T00:49:22.810Z,91.473389
2019-03-28T00:49:34.587Z,91.375732
2019-03-28T00:49:46.344Z,91.375732
2019-03-28T00:49:58.113Z,91.375732
2019-03-28T00:50:09.898Z,91.375732
2019-03-28T00:50:21.664Z,91.375732
2019-03-28T00:50:34.630Z,91.375732
2019-03-28T00:50:46.260Z,91.375732
2019-03-28T00:50:58.037Z,91.375732
2019-03-28T00:51:09.846Z,91.375732
2019-03-28T00:51:21.608Z,91.375732
2019-03-28T00:51:33.386Z,91.375732
2019-03-28T00:51:46.144Z,91.375732
2019-03-28T00:51:57.916Z,91.375732
2019-03-28T00:52:09.752Z,91.375732
2019-03-28T00:52:21.496Z,91.375732
2019-03-28T00:52:33.309Z,91.375732
2019-03-28T00:52:45.079Z,91.473389
2019-03-28T00:52:56.879Z,91.473389
2019-03-28T00:53:08.666Z,91.473389
2019-03-28T00:53:20.412Z,91.473389
2019-03-28T00:53:32.186Z,91.577148
2019-03-28T00:53:43.994Z,91.577148
2019-03-28T00:53:56.135Z,91.577148
2019-03-28T00:54:07.593Z,91.577148
2019-03-28T00:54:19.381Z,91.577148
2019-03-28T00:54:31.179Z,91.680908
2019-03-28T00:54:42.963Z,91.680908
2019-03-28T00:54:54.808Z,91.680908
2019-03-28T00:55:06.592Z,91.680908
2019-03-28T00:55:18.388Z,91.680908
2019-03-28T00:55:30.182Z,91.680908
2019-03-28T00:55:42.173Z,91.680908
2019-03-28T00:55:54.116Z,91.680908
2019-03-28T00:56:05.889Z,91.680908
2019-03-28T00:56:17.707Z,91.680908
2019-03-28T00:56:38.043Z,91.680908
2019-03-28T00:56:46.712Z,91.680908
2019-03-28T00:56:53.948Z,91.680908
2019-03-28T00:57:05.764Z,91.680908
2019-03-28T00:57:17.597Z,91.680908
2019-03-28T00:57:29.396Z,91.784668
2019-03-28T00:57:41.178Z,91.784668
2019-03-28T00:57:52.996Z,91.784668
2019-03-28T00:58:04.772Z,91.680908
2019-03-28T00:58:16.530Z,91.680908
2019-03-28T00:58:28.314Z,91.680908
2019-03-28T00:58:40.102Z,91.680908
2019-03-28T00:58:51.896Z,91.680908
2019-03-28T00:59:03.669Z,91.680908
2019-03-28T00:59:15.439Z,91.784668
2019-03-28T00:59:27.239Z,91.784668
2019-03-28T00:59:39.021Z,91.680908
2019-03-28T00:59:50.813Z,91.680908
2019-03-28T01:00:02.576Z,91.680908
2019-03-28T01:00:14.505Z,91.680908
2019-03-28T01:00:26.189Z,91.680908
2019-03-28T01:00:38.003Z,91.680908
2019-03-28T01:00:49.742Z,91.680908
2019-03-28T01:01:01.557Z,91.680908
2019-03-28T01:01:13.331Z,91.680908
2019-03-28T01:01:25.155Z,91.680908
2019-03-28T01:01:36.931Z,91.680908
2019-03-28T01:01:48.693Z,91.680908
2019-03-28T01:02:00.457Z,91.680908
2019-03-28T01:02:12.267Z,91.680908
2019-03-28T01:02:24.051Z,91.680908
2019-03-28T01:02:35.834Z,91.680908
2019-03-28T01:02:47.623Z,91.680908
2019-03-28T01:02:59.429Z,91.680908
2019-03-28T01:03:11.258Z,91.680908
2019-03-28T01:03:23.017Z,91.680908
2019-03-28T01:03:34.776Z,91.680908
2019-03-28T01:03:46.529Z,91.680908
2019-03-28T01:03:58.291Z,91.680908
2019-03-28T01:04:10.081Z,91.680908
2019-03-28T01:04:21.868Z,91.680908
2019-03-28T01:04:33.658Z,91.577148
2019-03-28T01:04:45.430Z,91.577148
2019-03-28T01:04:57.247Z,91.577148
2019-03-28T01:05:08.985Z,91.577148
2019-03-28T01:05:20.745Z,91.577148
2019-03-28T01:05:32.530Z,91.577148
2019-03-28T01:05:44.294Z,91.577148
2019-03-28T01:05:56.114Z,91.680908
2019-03-28T01:06:07.932Z,91.680908
2019-03-28T01:06:19.731Z,91.680908
2019-03-28T01:06:32.199Z,91.680908
2019-03-28T01:06:43.296Z,91.680908
2019-03-28T01:06:55.087Z,91.680908
2019-03-28T01:07:06.840Z,91.680908
2019-03-28T01:07:18.654Z,91.680908
2019-03-28T01:07:30.406Z,91.680908
2019-03-28T01:07:42.183Z,91.784668
2019-03-28T01:07:54.004Z,91.784668
2019-03-28T01:08:05.774Z,91.784668
2019-03-28T01:08:17.644Z,91.784668
2019-03-28T01:08:29.416Z,91.784668
2019-03-28T01:08:41.231Z,91.784668
2019-03-28T01:08:53.000Z,91.784668
2019-03-28T01:09:05.812Z,91.784668
2019-03-28T01:09:17.792Z,91.680908
2019-03-28T01:09:29.669Z,91.680908
2019-03-28T01:09:41.487Z,91.680908
2019-03-28T01:09:53.358Z,91.680908
2019-03-28T01:10:05.278Z,91.680908
2019-03-28T01:10:17.103Z,91.680908
2019-03-28T01:10:28.945Z,91.577148
2019-03-28T01:10:40.850Z,91.577148
2019-03-28T01:10:52.696Z,91.577148
2019-03-28T01:11:04.502Z,91.577148
2019-03-28T01:11:16.394Z,91.577148
2019-03-28T01:11:28.881Z,91.577148
2019-03-28T01:11:40.716Z,91.577148
2019-03-28T01:11:52.555Z,91.577148
2019-03-28T01:12:04.332Z,91.577148
2019-03-28T01:12:16.161Z,91.473389
2019-03-28T01:12:28.004Z,91.473389
2019-03-28T01:12:39.883Z,91.473389
2019-03-28T01:12:51.721Z,91.473389
2019-03-28T01:13:03.611Z,91.473389
2019-03-28T01:13:15.367Z,91.473389
2019-03-28T01:13:27.199Z,91.473389
2019-03-28T01:13:39.042Z,91.473389
2019-03-28T01:13:50.873Z,91.473389
2019-03-28T01:14:02.819Z,91.473389
2019-03-28T01:14:14.609Z,91.473389
2019-03-28T01:14:26.413Z,91.473389
2019-03-28T01:14:38.245Z,91.473389
2019-03-28T01:14:50.066Z,91.473389
2019-03-28T01:15:01.902Z,91.473389
2019-03-28T01:15:13.735Z,91.473389
2019-03-28T01:15:25.656Z,91.473389
2019-03-28T01:15:37.494Z,91.473389
2019-03-28T01:15:49.517Z,91.473389
2019-03-28T01:16:01.136Z,91.473389
2019-03-28T01:16:12.990Z,91.473389
2019-03-28T01:16:24.781Z,91.473389
2019-03-28T01:16:36.686Z,91.473389
2019-03-28T01:16:48.599Z,91.473389
2019-03-28T01:17:00.396Z,91.473389
2019-03-28T01:17:12.282Z,91.473389
2019-03-28T01:17:24.197Z,91.473389
2019-03-28T01:17:35.963Z,91.473389
2019-03-28T01:17:47.796Z,91.473389
2019-03-28T01:17:59.629Z,91.473389
2019-03-28T01:18:11.409Z,91.473389
2019-03-28T01:18:23.244Z,91.473389
2019-03-28T01:18:35.075Z,91.473389
2019-03-28T01:18:47.095Z,91.473389
2019-03-28T01:18:58.904Z,91.473389
2019-03-28T01:19:10.884Z,91.473389
2019-03-28T01:19:22.693Z,91.473389
2019-03-28T01:19:35.147Z,91.473389
2019-03-28T01:19:46.301Z,91.577148
2019-03-28T01:19:58.200Z,91.577148
2019-03-28T01:20:10.191Z,91.473389
2019-03-28T01:20:22.030Z,91.577148
2019-03-28T01:20:33.901Z,91.577148
2019-03-28T01:20:45.674Z,91.577148
2019-03-28T01:20:57.513Z,91.577148
2019-03-28T01:21:09.397Z,91.577148
2019-03-28T01:21:21.243Z,91.577148
2019-03-28T01:21:33.074Z,91.680908
2019-03-28T01:21:44.858Z,91.680908
2019-03-28T01:21:56.728Z,91.680908
2019-03-28T01:22:08.553Z,91.680908
2019-03-28T01:22:20.315Z,91.680908
2019-03-28T01:22:32.169Z,91.680908
2019-03-28T01:22:43.917Z,91.680908
2019-03-28T01:22:56.203Z,91.680908
2019-03-28T01:23:07.506Z,91.680908
2019-03-28T01:23:19.305Z,91.680908
2019-03-28T01:23:31.081Z,91.680908
2019-03-28T01:23:42.866Z,91.680908
2019-03-28T01:23:54.633Z,91.680908
2019-03-28T01:24:06.402Z,91.680908
2019-03-28T01:24:18.177Z,91.680908
2019-03-28T01:24:29.981Z,91.680908
2019-03-28T01:24:41.907Z,91.680908
2019-03-28T01:24:53.708Z,91.680908
2019-03-28T01:25:05.491Z,91.680908
2019-03-28T01:25:17.315Z,91.680908
2019-03-28T01:25:29.100Z,91.784668
2019-03-28T01:25:40.844Z,91.680908
2019-03-28T01:25:53.187Z,91.680908
2019-03-28T01:26:04.441Z,91.680908
2019-03-28T01:26:16.240Z,91.680908
2019-03-28T01:26:28.006Z,91.680908
2019-03-28T01:26:40.459Z,91.680908
2019-03-28T01:26:57.365Z,91.680908
2019-03-28T01:27:05.346Z,91.680908
2019-03-28T01:27:17.577Z,91.680908
2019-03-28T01:27:29.942Z,91.680908
2019-03-28T01:27:41.911Z,91.680908
2019-03-28T01:27:53.688Z,91.680908
2019-03-28T01:28:05.493Z,91.577148
2019-03-28T01:28:17.303Z,91.577148
2019-03-28T01:28:29.142Z,91.577148
2019-03-28T01:28:41.165Z,91.577148
2019-03-28T01:28:52.808Z,91.577148
2019-03-28T01:29:04.597Z,91.577148
2019-03-28T01:29:17.228Z,91.577148
2019-03-28T01:29:29.126Z,91.473389
2019-03-28T01:29:40.913Z,91.473389
2019-03-28T01:29:53.096Z,91.473389
2019-03-28T01:30:05.842Z,91.473389
2019-03-28T01:30:17.625Z,91.473389
2019-03-28T01:30:29.668Z,91.473389
2019-03-28T01:30:42.870Z,91.473389
2019-03-28T01:30:56.083Z,91.473389
2019-03-28T01:31:09.272Z,91.473389
2019-03-28T01:31:21.803Z,91.473389
2019-03-28T01:31:34.225Z,91.473389
2019-03-28T01:31:46.597Z,91.375732
2019-03-28T01:31:58.754Z,91.375732
2019-03-28T01:32:11.439Z,91.375732
2019-03-28T01:32:23.840Z,91.375732
2019-03-28T01:32:35.815Z,91.375732
2019-03-28T01:32:47.921Z,91.375732
2019-03-28T01:32:59.951Z,91.375732
2019-03-28T01:33:11.944Z,91.473389
2019-03-28T01:33:23.819Z,91.375732
2019-03-28T01:33:35.746Z,91.375732
2019-03-28T01:33:47.629Z,91.473389
2019-03-28T01:33:59.530Z,91.473389
2019-03-28T01:34:11.424Z,91.375732
2019-03-28T01:34:23.379Z,91.375732
2019-03-28T01:34:35.229Z,91.375732
2019-03-28T01:34:47.104Z,91.375732
2019-03-28T01:34:58.907Z,91.375732
2019-03-28T01:35:10.785Z,91.375732
2019-03-28T01:35:23.200Z,91.473389
2019-03-28T01:35:34.813Z,91.473389
2019-03-28T01:35:46.691Z,91.473389
2019-03-28T01:35:58.615Z,91.473389
2019-03-28T01:36:10.524Z,91.473389
2019-03-28T01:36:22.382Z,91.473389
2019-03-28T01:36:34.275Z,91.473389
2019-03-28T01:36:46.205Z,91.473389
2019-03-28T01:36:58.054Z,91.473389
2019-03-28T01:37:09.884Z,91.473389
2019-03-28T01:37:21.766Z,91.473389
2019-03-28T01:37:33.703Z,91.473389
2019-03-28T01:37:46.011Z,91.473389
2019-03-28T01:37:58.219Z,91.473389
2019-03-28T01:38:10.592Z,91.473389
2019-03-28T01:38:22.929Z,91.473389
2019-03-28T01:38:36.734Z,91.473389
2019-03-28T01:38:49.007Z,91.473389
2019-03-28T01:39:00.863Z,91.473389
2019-03-28T01:39:12.754Z,91.473389
2019-03-28T01:39:24.616Z,91.473389
2019-03-28T01:39:35.839Z,91.473389
2019-03-28T01:39:48.127Z,91.577148
2019-03-28T01:40:00.827Z,91.619873
2019-03-28T01:40:12.444Z,91.619873
2019-03-28T01:40:26.170Z,91.619873
2019-03-28T01:40:37.780Z,91.619873
2019-03-28T01:40:49.692Z,91.619873
2019-03-28T01:41:01.587Z,91.619873
2019-03-28T01:41:13.600Z,91.619873
2019-03-28T01:41:25.901Z,91.723633
2019-03-28T01:41:39.166Z,91.723633
2019-03-28T01:41:51.273Z,91.723633
2019-03-28T01:42:04.063Z,91.723633
2019-03-28T01:42:16.234Z,91.723633
2019-03-28T01:42:28.191Z,91.723633
2019-03-28T01:42:40.237Z,91.723633
2019-03-28T01:42:52.692Z,91.723633
2019-03-28T01:43:04.629Z,91.723633
2019-03-28T01:43:16.551Z,91.723633
2019-03-28T01:43:28.441Z,91.723633
2019-03-28T01:43:40.369Z,91.723633
2019-03-28T01:43:52.310Z,91.619873
2019-03-28T01:44:04.088Z,91.619873
2019-03-28T01:44:16.011Z,91.619873
2019-03-28T01:44:27.911Z,91.619873
2019-03-28T01:44:40.376Z,91.619873
2019-03-28T01:44:52.860Z,91.619873
2019-03-28T01:45:05.184Z,91.619873
2019-03-28T01:45:17.067Z,91.619873
2019-03-28T01:45:29.276Z,91.619873
2019-03-28T01:45:41.116Z,91.619873
2019-03-28T01:45:53.017Z,91.619873
2019-03-28T01:46:04.852Z,91.723633
2019-03-28T01:46:16.714Z,91.723633
2019-03-28T01:46:28.640Z,91.723633
2019-03-28T01:46:40.526Z,91.723633
2019-03-28T01:46:52.449Z,91.723633
2019-03-28T01:47:04.353Z,91.723633
2019-03-28T01:47:16.254Z,91.723633
2019-03-28T01:47:28.087Z,91.723633
2019-03-28T01:47:40.118Z,91.723633
2019-03-28T01:47:51.984Z,91.723633
2019-03-28T01:48:03.851Z,91.723633
2019-03-28T01:48:15.747Z,91.723633
2019-03-28T01:48:28.127Z,91.723633
2019-03-28T01:48:40.078Z,91.723633
2019-03-28T01:48:52.213Z,91.723633
2019-03-28T01:49:05.131Z,91.723633
2019-03-28T01:49:16.995Z,91.723633
2019-03-28T01:49:28.861Z,91.723633
2019-03-28T01:49:40.735Z,91.723633
2019-03-28T01:49:52.638Z,91.723633
2019-03-28T01:50:04.513Z,91.723633
2019-03-28T01:50:16.334Z,91.723633
2019-03-28T01:50:28.225Z,91.723633
2019-03-28T01:50:40.106Z,91.619873
2019-03-28T01:50:51.950Z,91.619873
2019-03-28T01:51:03.832Z,91.619873
2019-03-28T01:51:15.787Z,91.619873
2019-03-28T01:51:27.598Z,91.619873
2019-03-28T01:51:39.407Z,91.619873
2019-03-28T01:51:51.261Z,91.619873
2019-03-28T01:52:04.433Z,91.619873
2019-03-28T01:52:15.970Z,91.619873
2019-03-28T01:52:27.805Z,91.619873
2019-03-28T01:52:39.665Z,91.619873
2019-03-28T01:52:51.486Z,91.619873
2019-03-28T01:53:03.323Z,91.619873
2019-03-28T01:53:15.165Z,91.619873
2019-03-28T01:53:27.020Z,91.619873
2019-03-28T01:53:38.860Z,91.619873
2019-03-28T01:53:50.672Z,91.619873
2019-03-28T01:54:03.324Z,91.619873
2019-03-28T01:54:14.454Z,91.619873
2019-03-28T01:54:26.328Z,91.619873
2019-03-28T01:54:39.152Z,91.619873
2019-03-28T01:54:51.029Z,91.619873
2019-03-28T01:55:02.881Z,91.723633
2019-03-28T01:55:14.724Z,91.723633
2019-03-28T01:55:26.574Z,91.723633
2019-03-28T01:55:38.409Z,91.723633
2019-03-28T01:55:50.286Z,91.723633
2019-03-28T01:56:02.124Z,91.723633
2019-03-28T01:56:14.006Z,91.723633
2019-03-28T01:56:26.802Z,91.827393
2019-03-28T01:56:38.591Z,91.827393
2019-03-28T01:56:50.447Z,91.931152
2019-03-28T01:57:10.618Z,91.931152
2019-03-28T01:57:16.084Z,92.034912
2019-03-28T01:57:27.927Z,92.034912
2019-03-28T01:57:39.816Z,92.034912
2019-03-28T01:57:51.626Z,92.034912
2019-03-28T01:58:03.433Z,92.138672
2019-03-28T01:58:15.211Z,92.138672
2019-03-28T01:58:27.001Z,92.181396
2019-03-28T01:58:38.787Z,92.181396
2019-03-28T01:58:50.603Z,92.181396
2019-03-28T01:59:02.406Z,92.181396
2019-03-28T01:59:14.192Z,92.285156
2019-03-28T01:59:26.014Z,92.285156
2019-03-28T01:59:37.801Z,92.382812
2019-03-28T01:59:49.584Z,92.382812
2019-03-28T02:00:01.380Z,92.486572
2019-03-28T02:00:13.171Z,92.486572
2019-03-28T02:00:24.959Z,92.486572
2019-03-28T02:00:36.737Z,92.590332
2019-03-28T02:00:48.540Z,92.590332
2019-03-28T02:01:02.750Z,92.590332
2019-03-28T02:01:13.108Z,92.694092
2019-03-28T02:01:24.874Z,92.694092
2019-03-28T02:01:36.650Z,92.694092
2019-03-28T02:01:48.407Z,92.694092
2019-03-28T02:02:00.199Z,92.797852
2019-03-28T02:02:11.952Z,92.797852
2019-03-28T02:02:23.758Z,92.797852
2019-03-28T02:02:35.535Z,92.797852
2019-03-28T02:02:47.347Z,92.797852
2019-03-28T02:02:59.105Z,92.797852
2019-03-28T02:03:11.300Z,92.901611
2019-03-28T02:03:22.701Z,92.901611
2019-03-28T02:03:34.449Z,92.901611
2019-03-28T02:03:46.267Z,92.901611
2019-03-28T02:03:58.032Z,92.901611
2019-03-28T02:04:09.946Z,92.901611
2019-03-28T02:04:21.715Z,93.005371
2019-03-28T02:04:33.522Z,93.005371
2019-03-28T02:04:45.309Z,93.005371
2019-03-28T02:04:57.130Z,93.005371
2019-03-28T02:05:08.887Z,93.005371
2019-03-28T02:05:20.661Z,93.005371
2019-03-28T02:05:32.450Z,93.005371
2019-03-28T02:05:44.215Z,93.005371
2019-03-28T02:05:56.015Z,93.005371
2019-03-28T02:06:07.814Z,93.005371
2019-03-28T02:06:19.569Z,93.109131
2019-03-28T02:06:31.334Z,93.109131
2019-03-28T02:06:43.134Z,93.109131
2019-03-28T02:06:54.891Z,93.109131
2019-03-28T02:07:06.663Z,93.109131
2019-03-28T02:07:18.471Z,93.109131
2019-03-28T02:07:30.231Z,93.206787
2019-03-28T02:07:42.044Z,93.206787
2019-03-28T02:07:53.853Z,93.109131
2019-03-28T02:08:05.636Z,93.206787
2019-03-28T02:08:17.442Z,93.206787
2019-03-28T02:08:29.184Z,93.206787
2019-03-28T02:08:41.232Z,93.206787
2019-03-28T02:08:52.746Z,93.206787
2019-03-28T02:09:04.529Z,93.206787
2019-03-28T02:09:16.405Z,93.206787
2019-03-28T02:09:28.201Z,93.206787
2019-03-28T02:09:39.957Z,93.206787
2019-03-28T02:09:51.721Z,93.109131
2019-03-28T02:10:03.510Z,93.109131
2019-03-28T02:10:15.278Z,93.109131
2019-03-28T02:10:27.064Z,93.109131
2019-03-28T02:10:38.846Z,93.109131
2019-03-28T02:10:50.632Z,93.109131
2019-03-28T02:11:02.410Z,93.109131
2019-03-28T02:11:14.163Z,93.005371
2019-03-28T02:11:25.915Z,93.005371
2019-03-28T02:11:37.700Z,93.005371
2019-03-28T02:11:49.496Z,93.005371
2019-03-28T02:12:01.317Z,93.005371
2019-03-28T02:12:13.115Z,93.005371
2019-03-28T02:12:24.897Z,93.005371
2019-03-28T02:12:36.714Z,93.005371
2019-03-28T02:12:48.495Z,93.109131
2019-03-28T02:13:00.276Z,93.206787
2019-03-28T02:13:12.031Z,93.206787
2019-03-28T02:13:23.822Z,93.206787
2019-03-28T02:13:35.607Z,93.206787
2019-03-28T02:13:47.435Z,93.310547
2019-03-28T02:13:59.194Z,93.206787
2019-03-28T02:14:11.091Z,93.206787
2019-03-28T02:14:22.917Z,93.206787
2019-03-28T02:14:34.726Z,93.109131
2019-03-28T02:14:46.510Z,93.109131
2019-03-28T02:14:58.280Z,93.005371
2019-03-28T02:15:10.127Z,93.005371
2019-03-28T02:15:21.858Z,93.005371
2019-03-28T02:15:33.629Z,93.005371
2019-03-28T02:15:45.420Z,93.005371